TimeCDT,TemperatureF,Dew PointF,Humidity,Sea Level PressureIn,VisibilityMPH,Wind Direction,Wind SpeedMPH,Gust SpeedMPH,PrecipitationIn,Events,Conditions,WindDirDegrees,DateUTC
12:02 AM,57.2,53.6,88,30.04,10.0,WSW,6.9,-,N/A,,Overcast,240,2013-05-05 05:02:00
12:52 AM,55.0,52.0,89,30.04,10.0,West,4.6,-,N/A,,Overcast,280,2013-05-05 05:52:00
1:48 AM,53.6,51.8,94,30.02,10.0,WSW,3.5,-,N/A,,Mostly Cloudy,250,2013-05-05 06:48:00
1:52 AM,54.0,52.0,93,30.02,10.0,Calm,Calm,-,N/A,,Scattered Clouds,0,2013-05-05 06:52:00
2:52 AM,51.1,50.0,96,30.01,8.0,WNW,3.5,-,N/A,,Clear,300,2013-05-05 07:52:00
3:01 AM,51.8,50.0,94,30.01,2.5,WNW,3.5,-,N/A,,Partly Cloudy,300,2013-05-05 08:01:00
3:10 AM,51.8,50.0,94,30.01,10.0,Calm,Calm,-,N/A,,Partly Cloudy,0,2013-05-05 08:10:00
3:52 AM,51.1,48.0,89,30.01,10.0,Calm,Calm,-,N/A,,Partly Cloudy,0,2013-05-05 08:52:00
4:52 AM,48.0,46.9,96,30.01,7.0,Calm,Calm,-,N/A,,Clear,0,2013-05-05 09:52:00
4:58 AM,46.4,46.4,100,30.01,1.5,Calm,Calm,-,N/A,,Clear,0,2013-05-05 09:58:00
5:01 AM,44.6,44.6,100,30.01,0.8,Calm,Calm,-,N/A,,Clear,0,2013-05-05 10:01:00
5:11 AM,48.2,46.4,93,30.01,1.8,Calm,Calm,-,N/A,,Clear,0,2013-05-05 10:11:00
5:15 AM,48.2,48.2,100,30.01,3.0,Calm,Calm,-,N/A,,Clear,0,2013-05-05 10:15:00
5:42 AM,48.2,46.4,93,30.01,2.5,Calm,Calm,-,N/A,,Mostly Cloudy,0,2013-05-05 10:42:00
5:52 AM,48.9,46.9,93,30.02,4.0,Calm,Calm,-,N/A,,Scattered Clouds,0,2013-05-05 10:52:00
6:52 AM,50.0,48.9,96,30.02,5.0,WNW,3.5,-,N/A,,Partly Cloudy,300,2013-05-05 11:52:00
7:05 AM,53.6,51.8,94,30.02,5.0,NW,4.6,-,N/A,,Mostly Cloudy,310,2013-05-05 12:05:00
7:28 AM,55.4,53.6,94,30.02,5.0,WNW,4.6,-,N/A,,Scattered Clouds,300,2013-05-05 12:28:00
7:37 AM,55.4,53.6,94,30.02,4.0,NW,3.5,-,N/A,,Mostly Cloudy,320,2013-05-05 12:37:00
7:52 AM,55.9,54.0,93,30.02,4.0,Calm,Calm,-,N/A,,Mostly Cloudy,0,2013-05-05 12:52:00
8:18 AM,57.2,53.6,88,30.02,5.0,NNW,5.8,-,N/A,,Scattered Clouds,330,2013-05-05 13:18:00
8:52 AM,59.0,55.0,87,30.03,7.0,North,5.8,-,N/A,,Clear,350,2013-05-05 13:52:00
9:52 AM,62.1,55.9,80,30.02,7.0,North,8.1,-,N/A,,Partly Cloudy,10,2013-05-05 14:52:00
10:52 AM,63.0,53.1,70,30.02,10.0,NE,8.1,-,N/A,,Clear,40,2013-05-05 15:52:00
11:52 AM,66.9,54.0,63,30.01,10.0,NE,4.6,-,N/A,,Clear,40,2013-05-05 16:52:00
12:52 PM,70.0,51.1,51,29.98,10.0,North,6.9,-,N/A,,Clear,10,2013-05-05 17:52:00
1:52 PM,72.0,53.1,51,29.96,10.0,NNE,9.2,-,N/A,,Clear,30,2013-05-05 18:52:00
2:52 PM,71.1,48.9,45,29.95,10.0,ENE,8.1,-,N/A,,Mostly Cloudy,70,2013-05-05 19:52:00
3:52 PM,75.0,48.0,38,29.94,10.0,NNE,10.4,-,N/A,,Partly Cloudy,30,2013-05-05 20:52:00
4:52 PM,73.9,46.9,38,29.94,10.0,NE,10.4,-,N/A,,Scattered Clouds,50,2013-05-05 21:52:00
5:52 PM,72.0,45.0,38,29.94,10.0,ENE,13.8,-,N/A,,Clear,60,2013-05-05 22:52:00
6:52 PM,71.1,44.1,38,29.94,10.0,NE,6.9,-,N/A,,Mostly Cloudy,50,2013-05-05 23:52:00
7:52 PM,68.0,43.0,40,29.96,10.0,East,10.4,-,N/A,,Partly Cloudy,80,2013-05-06 00:52:00
8:52 PM,60.1,46.0,60,29.98,10.0,ENE,6.9,-,N/A,,Clear,70,2013-05-06 01:52:00
9:52 PM,59.0,48.0,67,30.01,10.0,East,3.5,-,N/A,,Scattered Clouds,90,2013-05-06 02:52:00
10:52 PM,55.9,48.9,77,30.01,10.0,Calm,Calm,-,N/A,,Mostly Cloudy,0,2013-05-06 03:52:00
11:52 PM,55.9,50.0,80,30.01,10.0,Calm,Calm,-,N/A,,Mostly Cloudy,0,2013-05-06 04:52:00